createdAt,value
2023-02-02T00:00:59.628Z,2.60
2023-02-02T00:03:26.794Z,2.57
2023-02-02T00:05:54.262Z,2.80
2023-02-02T00:08:21.844Z,2.40
2023-02-02T00:10:50.550Z,1.97
2023-02-02T00:13:18.147Z,1.90
2023-02-02T00:15:45.370Z,2.00
2023-02-02T00:18:12.514Z,1.97
2023-02-02T00:20:39.813Z,2.23
2023-02-02T00:23:06.998Z,2.87
2023-02-02T00:25:34.198Z,2.30
2023-02-02T00:28:01.457Z,2.50
2023-02-02T00:30:28.649Z,4.37
2023-02-02T00:32:55.899Z,2.57
2023-02-02T00:35:23.344Z,3.47
2023-02-02T00:37:50.624Z,1.80
2023-02-02T00:40:17.918Z,2.10
2023-02-02T00:42:49.115Z,4.63
2023-02-02T00:45:16.343Z,3.97
2023-02-02T00:47:44.224Z,2.77
2023-02-02T00:50:12.189Z,3.30
2023-02-02T00:52:39.416Z,1.80
2023-02-02T00:55:06.921Z,2.00
2023-02-02T00:57:34.137Z,2.90
2023-02-02T01:00:01.384Z,2.40
2023-02-02T01:02:28.577Z,3.00
2023-02-02T01:04:55.813Z,2.47
2023-02-02T01:07:22.941Z,1.90
2023-02-02T01:09:50.099Z,2.00
2023-02-02T01:12:17.276Z,2.00
2023-02-02T01:14:44.427Z,2.10
2023-02-02T01:17:11.631Z,1.90
2023-02-02T01:19:38.849Z,2.40
2023-02-02T01:22:06.046Z,3.33
2023-02-02T01:24:33.211Z,2.40
2023-02-02T01:27:00.577Z,5.90
2023-02-02T01:29:27.749Z,3.20
2023-02-02T01:31:54.934Z,2.20
2023-02-02T01:34:22.202Z,1.20
2023-02-02T01:36:49.387Z,1.10
2023-02-02T01:39:16.552Z,1.57
2023-02-02T01:41:43.789Z,1.70
2023-02-02T01:44:29.788Z,1.40
2023-02-02T01:46:56.979Z,1.00
2023-02-02T01:49:24.175Z,1.00
2023-02-02T01:51:52.502Z,1.20
2023-02-02T01:54:24.424Z,1.20
2023-02-02T01:56:53.117Z,1.47
2023-02-02T01:59:20.315Z,1.43
2023-02-02T02:01:47.798Z,1.80
2023-02-02T02:04:15.017Z,2.00
2023-02-02T02:06:42.803Z,1.80
2023-02-02T02:09:09.978Z,1.60
2023-02-02T02:11:37.216Z,1.93
2023-02-02T02:14:23.826Z,2.50
2023-02-02T02:17:11.619Z,2.07
2023-02-02T02:20:01.609Z,3.00
2023-02-02T02:22:53.503Z,2.80
2023-02-02T02:25:58.497Z,2.10
2023-02-02T02:28:31.498Z,1.20
2023-02-02T02:31:10.903Z,1.63
2023-02-02T02:33:44.250Z,2.00
2023-02-02T02:36:34.481Z,1.60
2023-02-02T02:39:07.471Z,1.40
2023-02-02T02:41:35.618Z,3.10
2023-02-02T02:44:07.755Z,5.60
2023-02-02T02:46:34.958Z,8.30
2023-02-02T02:49:02.146Z,4.57
2023-02-02T02:51:48.900Z,4.10
2023-02-02T02:54:23.234Z,4.00
2023-02-02T02:56:50.349Z,3.90
2023-02-02T02:59:21.532Z,1.80
2023-02-02T03:02:08.924Z,1.97
2023-02-02T03:04:40.675Z,1.90
2023-02-02T03:07:08.900Z,2.50
2023-02-02T03:09:36.947Z,2.10
2023-02-02T03:12:04.102Z,1.80
2023-02-02T03:14:35.198Z,2.00
2023-02-02T03:17:02.311Z,2.27
2023-02-02T03:19:29.409Z,2.20
2023-02-02T03:21:56.620Z,1.53
2023-02-02T03:24:23.781Z,3.47
2023-02-02T03:26:50.932Z,3.37
2023-02-02T03:29:18.227Z,3.40
2023-02-02T03:31:45.402Z,2.63
2023-02-02T03:34:12.540Z,2.30
2023-02-02T03:36:39.695Z,3.30
2023-02-02T03:39:06.853Z,3.20
2023-02-02T03:41:33.961Z,3.57
2023-02-02T03:44:01.146Z,2.63
2023-02-02T03:46:28.313Z,3.03
2023-02-02T03:48:55.470Z,1.80
2023-02-02T03:51:22.638Z,1.43
2023-02-02T03:53:49.733Z,1.50
2023-02-02T03:56:17.185Z,1.77
2023-02-02T03:58:46.398Z,4.67
2023-02-02T04:01:14.601Z,3.47
2023-02-02T04:03:41.849Z,3.40
2023-02-02T04:06:09.066Z,2.70
2023-02-02T04:08:36.250Z,2.83
2023-02-02T04:11:03.453Z,1.80
2023-02-02T04:13:30.933Z,1.43
2023-02-02T04:16:01.194Z,1.60
2023-02-02T04:18:28.591Z,2.27
2023-02-02T04:20:59.413Z,1.93
2023-02-02T04:23:26.578Z,7.00
2023-02-02T04:25:53.744Z,2.83
2023-02-02T04:28:20.962Z,2.40
2023-02-02T04:30:48.087Z,1.80
2023-02-02T04:33:15.223Z,2.03
2023-02-02T04:35:43.270Z,1.70
2023-02-02T04:38:10.409Z,2.90
2023-02-02T04:40:40.756Z,1.57
2023-02-02T04:43:08.198Z,1.97
2023-02-02T04:45:35.522Z,1.97
2023-02-02T04:48:02.689Z,2.30
2023-02-02T04:50:30.096Z,2.17
2023-02-02T04:52:57.245Z,4.30
2023-02-02T04:55:24.726Z,4.60
2023-02-02T04:57:52.090Z,3.83
2023-02-02T05:00:19.387Z,5.60
2023-02-02T05:02:46.510Z,3.93
2023-02-02T05:05:14.129Z,9.07
2023-02-02T05:07:41.355Z,7.17
2023-02-02T05:10:08.974Z,5.20
2023-02-02T05:12:36.110Z,5.60
2023-02-02T05:15:05.247Z,4.13
2023-02-02T05:17:32.534Z,4.90
2023-02-02T05:19:59.700Z,4.37
2023-02-02T05:22:27.063Z,6.03
2023-02-02T05:24:54.185Z,5.73
2023-02-02T05:27:21.369Z,6.43
2023-02-02T05:29:48.612Z,4.60
2023-02-02T05:32:15.739Z,3.20
2023-02-02T05:34:42.932Z,3.50
2023-02-02T05:37:10.066Z,2.87
2023-02-02T05:39:37.243Z,3.63
2023-02-02T05:42:04.444Z,3.67
2023-02-02T05:44:31.583Z,2.67
2023-02-02T05:46:58.714Z,2.13
2023-02-02T05:49:25.886Z,2.83
2023-02-02T05:51:54.261Z,4.73
2023-02-02T05:54:21.452Z,3.90
2023-02-02T05:56:48.801Z,3.47
2023-02-02T05:59:17.393Z,2.90
2023-02-02T06:01:45.297Z,3.37
2023-02-02T06:04:12.516Z,3.27
2023-02-02T06:06:39.912Z,2.70
2023-02-02T06:09:07.169Z,2.23
2023-02-02T06:11:34.409Z,2.53
2023-02-02T06:14:01.670Z,2.10
2023-02-02T06:16:28.820Z,2.67
2023-02-02T06:18:56.031Z,2.90
2023-02-02T06:21:24.732Z,4.70
2023-02-02T06:23:52.019Z,4.83
2023-02-02T06:26:19.383Z,6.63
2023-02-02T06:28:49.360Z,9.43
2023-02-02T06:31:19.759Z,14.77
2023-02-02T06:33:47.394Z,13.00
2023-02-02T06:36:14.546Z,8.87
2023-02-02T06:38:41.713Z,6.07
2023-02-02T06:41:08.828Z,2.87
2023-02-02T06:43:35.947Z,3.20
2023-02-02T06:46:03.220Z,3.57
2023-02-02T06:48:30.370Z,2.17
2023-02-02T06:51:00.454Z,2.40
2023-02-02T06:53:27.826Z,2.00
2023-02-02T06:55:58.378Z,3.47
2023-02-02T06:58:25.513Z,1.97
2023-02-02T07:00:52.711Z,2.80
2023-02-02T07:03:21.411Z,6.83
2023-02-02T07:05:51.332Z,14.23
2023-02-02T07:08:18.536Z,11.83
2023-02-02T07:11:13.278Z,5.20
2023-02-02T07:13:32.923Z,11.27
2023-02-02T07:16:00.371Z,9.47
2023-02-02T07:18:27.623Z,6.83
2023-02-02T07:20:54.774Z,8.33
2023-02-02T07:23:21.908Z,6.33
2023-02-02T07:25:49.049Z,9.60
2023-02-02T07:28:16.214Z,7.27
2023-02-02T07:30:43.408Z,6.07
2023-02-02T07:33:10.633Z,3.80
2023-02-02T07:35:37.827Z,6.47
2023-02-02T07:38:05.002Z,7.53
2023-02-02T07:40:32.118Z,8.07
2023-02-02T07:43:01.034Z,16.13
2023-02-02T07:45:28.355Z,15.37
2023-02-02T07:47:58.998Z,18.30
2023-02-02T07:50:26.168Z,25.80
2023-02-02T07:52:53.607Z,18.60
2023-02-02T07:55:20.816Z,14.13
2023-02-02T07:57:47.997Z,23.40
2023-02-02T08:00:15.265Z,9.53
2023-02-02T08:02:42.459Z,13.60
2023-02-02T08:05:10.003Z,5.73
2023-02-02T08:07:37.190Z,4.90
2023-02-02T08:10:04.518Z,3.37
2023-02-02T08:12:31.681Z,3.27
2023-02-02T08:14:59.119Z,5.13
2023-02-02T08:17:26.263Z,5.67
2023-02-02T08:19:53.422Z,7.60
2023-02-02T08:22:20.590Z,5.73
2023-02-02T08:24:48.067Z,5.27
2023-02-02T08:27:16.172Z,5.57
2023-02-02T08:29:43.327Z,6.83
2023-02-02T08:32:10.456Z,6.43
2023-02-02T08:34:37.805Z,7.67
2023-02-02T08:37:05.024Z,8.13
2023-02-02T08:39:32.147Z,8.70
2023-02-02T08:41:59.360Z,6.50
2023-02-02T08:44:26.923Z,6.20
2023-02-02T08:47:12.711Z,7.47
2023-02-02T08:49:42.383Z,6.20
2023-02-02T08:52:09.508Z,6.43
2023-02-02T08:54:36.660Z,7.47
2023-02-02T08:57:03.808Z,6.17
2023-02-02T08:59:30.915Z,6.13
2023-02-02T09:01:58.106Z,10.43
2023-02-02T09:04:25.336Z,13.57
2023-02-02T09:06:52.472Z,9.43
2023-02-02T09:09:19.634Z,12.03
2023-02-02T09:11:46.783Z,8.87
2023-02-02T09:14:14.162Z,15.73
2023-02-02T09:16:41.405Z,20.13
2023-02-02T09:19:08.989Z,8.07
2023-02-02T09:21:37.219Z,8.87
2023-02-02T09:24:08.438Z,6.20
2023-02-02T09:26:35.620Z,3.73
2023-02-02T09:29:03.528Z,2.50
2023-02-02T09:31:34.353Z,4.47
2023-02-02T09:34:05.090Z,6.40
2023-02-02T09:36:32.322Z,9.43
2023-02-02T09:38:59.680Z,7.40
2023-02-02T09:41:26.815Z,5.47
2023-02-02T09:44:12.479Z,5.67
2023-02-02T09:46:45.720Z,4.53
2023-02-02T09:49:14.180Z,5.23
2023-02-02T09:51:42.539Z,5.00
2023-02-02T09:54:19.540Z,4.20
2023-02-02T09:56:50.682Z,4.13
2023-02-02T09:59:24.224Z,4.43
2023-02-02T10:01:53.846Z,5.57
2023-02-02T10:04:26.790Z,3.57
2023-02-02T10:06:54.911Z,3.20
2023-02-02T10:09:26.115Z,3.73
2023-02-02T10:11:56.283Z,5.80
2023-02-02T10:14:27.870Z,4.30
2023-02-02T10:16:55.556Z,4.17
2023-02-02T10:19:25.374Z,5.23
2023-02-02T10:21:53.059Z,4.10
2023-02-02T10:24:21.145Z,4.90
2023-02-02T10:26:52.727Z,3.43
2023-02-02T10:29:27.228Z,4.87
2023-02-02T10:32:14.409Z,6.43
2023-02-02T10:34:45.694Z,4.27
2023-02-02T10:37:16.288Z,4.33
2023-02-02T10:40:02.287Z,3.50
2023-02-02T10:42:35.462Z,4.77
2023-02-02T10:45:11.625Z,3.50
2023-02-02T10:47:38.988Z,3.97
2023-02-02T10:50:15.011Z,3.50
2023-02-02T10:52:44.639Z,7.73
2023-02-02T10:55:15.874Z,2.63
2023-02-02T10:57:52.140Z,2.90
2023-02-02T11:00:22.865Z,2.73
2023-02-02T11:02:50.883Z,3.47
2023-02-02T11:05:38.819Z,2.77
2023-02-02T11:08:13.467Z,3.03
2023-02-02T11:10:40.729Z,2.93
2023-02-02T11:13:08.232Z,3.50
2023-02-02T11:15:35.405Z,5.50
2023-02-02T11:18:16.144Z,6.33
2023-02-02T11:20:45.418Z,5.20
2023-02-02T11:23:15.764Z,3.23
2023-02-02T11:25:43.039Z,4.13
2023-02-02T11:28:18.807Z,3.70
2023-02-02T11:30:50.561Z,3.73
2023-02-02T11:33:29.966Z,4.77
2023-02-02T11:36:00.805Z,3.87
2023-02-02T11:38:28.103Z,5.77
2023-02-02T11:40:55.217Z,5.00
2023-02-02T11:43:36.167Z,6.30
2023-02-02T11:46:04.346Z,4.60
2023-02-02T11:48:35.802Z,3.63
2023-02-02T11:51:03.062Z,3.13
2023-02-02T11:53:31.361Z,3.97
2023-02-02T11:56:00.319Z,3.73
2023-02-02T11:58:28.337Z,3.10
2023-02-02T12:00:56.744Z,2.83
2023-02-02T12:03:24.799Z,2.50
2023-02-02T12:05:52.019Z,2.57
2023-02-02T12:08:20.330Z,2.30
2023-02-02T12:10:47.601Z,4.27
2023-02-02T12:13:24.270Z,3.53
2023-02-02T12:15:57.268Z,4.60
2023-02-02T12:18:27.454Z,6.13
2023-02-02T12:20:59.471Z,2.33
2023-02-02T12:23:46.454Z,2.40
2023-02-02T12:26:35.175Z,2.50
2023-02-02T12:29:18.758Z,3.17
2023-02-02T12:31:45.933Z,2.87
2023-02-02T12:34:25.343Z,3.67
2023-02-02T12:36:55.259Z,3.70
2023-02-02T12:39:22.564Z,3.60
2023-02-02T12:41:49.850Z,4.63
2023-02-02T12:44:19.449Z,4.77
2023-02-02T12:46:46.602Z,4.20
2023-02-02T12:49:33.507Z,3.10
2023-02-02T12:52:06.771Z,3.17
2023-02-02T12:54:45.138Z,3.03
2023-02-02T12:57:32.278Z,2.40
2023-02-02T13:00:12.769Z,2.97
2023-02-02T13:02:45.526Z,2.30
2023-02-02T13:05:15.792Z,1.93
2023-02-02T13:07:53.611Z,6.60
2023-02-02T13:10:24.648Z,2.93
2023-02-02T13:12:55.987Z,3.17
2023-02-02T13:15:24.273Z,6.07
2023-02-02T13:17:51.541Z,7.70
2023-02-02T13:20:26.689Z,7.77
2023-02-02T13:22:55.236Z,8.30
2023-02-02T13:25:45.629Z,5.03
2023-02-02T13:28:17.510Z,7.97
2023-02-02T13:30:44.771Z,9.10
2023-02-02T13:33:16.889Z,8.03
2023-02-02T13:35:50.812Z,6.03
2023-02-02T13:38:21.084Z,7.07
2023-02-02T13:40:48.384Z,6.17
2023-02-02T13:43:24.889Z,28.83
2023-02-02T13:45:54.815Z,28.83
2023-02-02T13:48:22.017Z,6.17
2023-02-02T13:51:07.368Z,5.00
2023-02-02T13:53:40.537Z,9.50
2023-02-02T13:56:15.223Z,9.37
2023-02-02T13:58:48.752Z,5.10
2023-02-02T14:01:16.467Z,11.70
2023-02-02T14:03:44.351Z,4.50
2023-02-02T14:06:24.040Z,10.90
2023-02-02T14:08:56.973Z,6.47
2023-02-02T14:11:31.047Z,13.17
2023-02-02T14:14:25.624Z,5.43
2023-02-02T14:16:53.426Z,3.03
2023-02-02T14:19:29.986Z,4.30
2023-02-02T14:22:00.445Z,2.07
2023-02-02T14:24:27.607Z,1.83
2023-02-02T14:26:58.470Z,5.27
2023-02-02T14:29:31.710Z,5.30
2023-02-02T14:32:08.146Z,9.63
2023-02-02T14:34:39.467Z,15.10
2023-02-02T14:37:09.685Z,4.77
2023-02-02T14:39:38.121Z,4.50
2023-02-02T14:42:34.164Z,16.90
2023-02-02T14:45:13.256Z,30.00
2023-02-02T14:47:48.228Z,36.87
2023-02-02T14:50:26.054Z,19.07
2023-02-02T14:53:00.817Z,14.07
2023-02-02T14:55:28.357Z,16.67
2023-02-02T14:58:02.320Z,48.03
2023-02-02T15:00:33.301Z,44.13
2023-02-02T15:03:20.815Z,38.70
2023-02-02T15:05:48.891Z,10.43
2023-02-02T15:08:23.708Z,11.60
2023-02-02T15:10:54.035Z,12.40
2023-02-02T15:13:37.465Z,14.33
2023-02-02T15:16:10.947Z,4.70
2023-02-02T15:18:45.047Z,13.30
2023-02-02T15:21:13.727Z,12.90
2023-02-02T15:23:45.045Z,17.07
2023-02-02T15:26:18.342Z,18.33
2023-02-02T15:28:50.015Z,15.03
2023-02-02T15:31:28.975Z,14.03
2023-02-02T15:34:01.077Z,5.60
2023-02-02T15:36:29.271Z,12.40
2023-02-02T15:38:57.340Z,8.30
2023-02-02T15:41:25.241Z,10.97
2023-02-02T15:43:53.283Z,12.10
2023-02-02T15:46:30.337Z,11.57
2023-02-02T15:49:32.837Z,13.73
2023-02-02T15:52:01.953Z,6.67
2023-02-02T15:54:32.614Z,7.13
2023-02-02T15:57:02.981Z,12.87
2023-02-02T15:59:30.930Z,12.13
2023-02-02T16:02:05.535Z,11.90
2023-02-02T16:04:37.206Z,11.40
2023-02-02T16:07:05.093Z,14.50
2023-02-02T16:09:34.116Z,15.30
2023-02-02T16:12:01.913Z,12.87
2023-02-02T16:14:29.051Z,10.83
2023-02-02T16:16:56.215Z,11.77
2023-02-02T16:19:26.774Z,14.97
2023-02-02T16:21:57.425Z,14.00
2023-02-02T16:24:28.812Z,15.83
2023-02-02T16:26:56.356Z,17.00
2023-02-02T16:29:23.591Z,15.47
2023-02-02T16:31:51.010Z,15.30
2023-02-02T16:34:19.076Z,75.87
2023-02-02T16:37:04.315Z,34.40
2023-02-02T16:39:31.454Z,23.00
2023-02-02T16:42:08.678Z,19.37
2023-02-02T16:44:39.919Z,23.97
2023-02-02T16:47:07.981Z,14.80
2023-02-02T16:49:35.195Z,14.70
2023-02-02T16:52:08.507Z,13.80
2023-02-02T16:54:35.708Z,18.30
2023-02-02T16:57:03.178Z,10.00
2023-02-02T16:59:33.422Z,11.63
2023-02-02T17:02:01.693Z,6.90
2023-02-02T17:04:29.618Z,6.80
2023-02-02T17:06:57.819Z,12.17
2023-02-02T17:09:24.967Z,38.83
2023-02-02T17:11:59.068Z,38.47
2023-02-02T17:14:30.478Z,28.93
2023-02-02T17:16:57.711Z,39.50
2023-02-02T17:19:24.887Z,88.10
2023-02-02T17:21:52.031Z,96.90
2023-02-02T17:24:19.167Z,96.97
2023-02-02T17:26:48.147Z,64.37
2023-02-02T17:29:19.054Z,22.47
2023-02-02T17:31:46.256Z,23.40
2023-02-02T17:34:16.709Z,27.17
2023-02-02T17:36:44.144Z,19.93
2023-02-02T17:39:11.739Z,52.37
2023-02-02T17:41:39.241Z,14.37
2023-02-02T17:44:06.933Z,17.17
2023-02-02T17:46:35.084Z,14.20
2023-02-02T17:49:02.350Z,16.30
2023-02-02T17:51:30.795Z,43.70
2023-02-02T17:54:00.392Z,41.03
2023-02-02T17:56:27.660Z,50.17
2023-02-02T17:58:54.853Z,43.60
2023-02-02T18:01:22.049Z,32.27
2023-02-02T18:03:49.478Z,26.80
2023-02-02T18:06:16.651Z,14.27
2023-02-02T18:08:45.606Z,16.03
2023-02-02T18:11:13.525Z,17.93
2023-02-02T18:13:44.327Z,16.83
2023-02-02T18:16:11.669Z,17.63
2023-02-02T18:18:39.114Z,20.50
2023-02-02T18:21:10.041Z,20.83
2023-02-02T18:23:37.581Z,18.43
2023-02-02T18:26:14.632Z,10.97
2023-02-02T18:28:41.819Z,10.90
2023-02-02T18:31:12.365Z,7.93
2023-02-02T18:33:41.488Z,12.30
2023-02-02T18:36:10.716Z,30.47
2023-02-02T18:38:38.160Z,13.10
2023-02-02T18:41:05.606Z,12.70
2023-02-02T18:43:32.795Z,16.80
2023-02-02T18:46:04.594Z,33.73
2023-02-02T18:48:31.939Z,30.50
2023-02-02T18:50:59.307Z,19.80
2023-02-02T18:53:28.571Z,11.33
2023-02-02T18:55:55.771Z,7.57
2023-02-02T18:58:22.939Z,7.03
2023-02-02T19:00:50.194Z,16.73
2023-02-02T19:03:17.395Z,8.87
2023-02-02T19:06:03.256Z,6.80
2023-02-02T19:08:31.503Z,8.63
2023-02-02T19:11:01.036Z,6.97
2023-02-02T19:13:28.684Z,7.53
2023-02-02T19:15:55.904Z,11.67
2023-02-02T19:18:24.169Z,6.87
2023-02-02T19:20:51.513Z,5.00
2023-02-02T19:23:25.479Z,8.33
2023-02-02T19:25:54.150Z,6.67
2023-02-02T19:28:31.131Z,6.03
2023-02-02T19:30:59.158Z,9.30
2023-02-02T19:33:42.757Z,6.73
2023-02-02T19:36:22.903Z,6.23
2023-02-02T19:38:50.772Z,7.53
2023-02-02T19:41:19.483Z,7.40
2023-02-02T19:43:47.822Z,7.57
2023-02-02T19:46:20.780Z,8.27
2023-02-02T19:48:50.560Z,5.50
2023-02-02T19:51:27.006Z,4.80
2023-02-02T19:53:54.357Z,3.90
2023-02-02T19:56:24.041Z,5.47
2023-02-02T19:58:51.230Z,4.27
2023-02-02T20:01:19.820Z,4.77
2023-02-02T20:03:47.176Z,4.40
2023-02-02T20:06:20.120Z,4.20
2023-02-02T20:08:47.268Z,3.70
2023-02-02T20:11:32.451Z,4.20
2023-02-02T20:14:00.565Z,8.60
2023-02-02T20:16:29.675Z,6.40
2023-02-02T20:18:57.214Z,3.67
2023-02-02T20:21:27.394Z,4.07
2023-02-02T20:23:54.496Z,7.43
2023-02-02T20:26:23.160Z,6.23
2023-02-02T20:28:50.580Z,6.03
2023-02-02T20:31:19.092Z,5.47
2023-02-02T20:33:55.731Z,6.43
2023-02-02T20:36:27.995Z,5.50
2023-02-02T20:38:55.124Z,6.40
2023-02-02T20:41:22.297Z,5.13
2023-02-02T20:43:49.406Z,5.50
2023-02-02T20:46:16.519Z,11.47
2023-02-02T20:48:43.745Z,12.77
2023-02-02T20:51:10.862Z,10.53
2023-02-02T20:53:39.536Z,34.67
2023-02-02T20:56:06.950Z,16.83
2023-02-02T20:58:34.060Z,31.70
2023-02-02T21:01:05.282Z,42.27
2023-02-02T21:03:32.926Z,26.67
2023-02-02T21:06:00.159Z,22.73
2023-02-02T21:08:27.278Z,16.43
2023-02-02T21:10:54.475Z,42.93
2023-02-02T21:13:21.721Z,11.23
2023-02-02T21:15:48.836Z,17.83
2023-02-02T21:18:16.013Z,13.93
2023-02-02T21:20:43.183Z,15.37
2023-02-02T21:23:10.296Z,11.27
2023-02-02T21:25:37.513Z,12.70
2023-02-02T21:28:04.744Z,10.33
2023-02-02T21:30:32.304Z,25.17
2023-02-02T21:32:59.700Z,10.00
2023-02-02T21:35:26.979Z,12.87
2023-02-02T21:37:56.014Z,8.87
2023-02-02T21:40:27.888Z,13.00
2023-02-02T21:42:55.134Z,13.07
2023-02-02T21:45:49.416Z,15.17
2023-02-02T21:48:22.536Z,13.57
2023-02-02T21:50:49.691Z,6.50
2023-02-02T21:53:20.817Z,7.13
2023-02-02T21:55:52.298Z,6.97
2023-02-02T21:58:29.635Z,6.57
2023-02-02T22:01:00.794Z,4.77
2023-02-02T22:03:40.386Z,5.50
2023-02-02T22:06:18.598Z,8.30
2023-02-02T22:08:45.727Z,6.67
2023-02-02T22:11:23.365Z,3.83
2023-02-02T22:13:50.639Z,6.53
2023-02-02T22:16:18.622Z,6.40
2023-02-02T22:18:45.829Z,5.50
2023-02-02T22:21:13.313Z,7.00
2023-02-02T22:23:40.439Z,4.90
2023-02-02T22:26:09.342Z,4.83
2023-02-02T22:28:39.971Z,5.03
2023-02-02T22:31:07.199Z,4.10
2023-02-02T22:33:34.424Z,5.87
2023-02-02T22:36:02.859Z,5.47
2023-02-02T22:38:30.025Z,5.40
2023-02-02T22:40:57.339Z,5.23
2023-02-02T22:43:24.472Z,4.63
2023-02-02T22:45:51.605Z,4.33
2023-02-02T22:48:18.905Z,4.47
2023-02-02T22:50:46.107Z,5.00
2023-02-02T22:53:15.330Z,6.50
2023-02-02T22:55:43.486Z,3.70
2023-02-02T22:58:10.629Z,5.27
2023-02-02T23:00:37.870Z,3.63
2023-02-02T23:03:05.124Z,4.50
2023-02-02T23:05:32.355Z,4.47
2023-02-02T23:07:59.472Z,3.90
2023-02-02T23:10:27.715Z,3.93
2023-02-02T23:12:58.556Z,3.57
2023-02-02T23:15:25.898Z,3.50
2023-02-02T23:17:53.068Z,3.23
2023-02-02T23:20:20.355Z,3.70
2023-02-02T23:22:47.491Z,6.83
2023-02-02T23:25:14.849Z,8.10
2023-02-02T23:27:42.211Z,6.37
2023-02-02T23:30:09.836Z,6.07
2023-02-02T23:32:37.035Z,6.33
2023-02-02T23:35:04.482Z,4.10
2023-02-02T23:37:31.593Z,5.47
2023-02-02T23:39:58.792Z,4.07
2023-02-02T23:42:25.948Z,4.53
2023-02-02T23:44:53.236Z,4.00
2023-02-02T23:47:20.398Z,4.43
2023-02-02T23:49:47.671Z,4.07
2023-02-02T23:52:14.858Z,5.00
2023-02-02T23:54:42.056Z,4.10
2023-02-02T23:57:09.276Z,5.03
2023-02-02T23:59:36.433Z,4.70
